sensor_id;sensor_type;location;lat;lon;timestamp;temperature;humidity
27423;DHT22;14878;50.778;0.258;2022-07-15T00:00:45;17.10;99.90
27423;DHT22;14878;50.778;0.258;2022-07-15T00:01:48;17.10;99.90
27423;DHT22;14878;50.778;0.258;2022-07-15T00:02:49;17.10;99.90
27423;DHT22;14878;50.778;0.258;2022-07-15T00:03:50;17.10;99.90
27423;DHT22;14878;50.778;0.258;2022-07-15T00:04:51;16.40;99.90
27423;DHT22;14878;50.778;0.258;2022-07-15T00:05:52;16.90;99.90
27423;DHT22;14878;50.778;0.258;2022-07-15T00:06:52;16.80;99.90
27423;DHT22;14878;50.778;0.258;2022-07-15T00:07:53;16.80;99.90
27423;DHT22;14878;50.778;0.258;2022-07-15T00:08:54;16.70;99.90
27423;DHT22;14878;50.778;0.258;2022-07-15T00:09:55;16.70;99.90
27423;DHT22;14878;50.778;0.258;2022-07-15T00:11:14;16.60;99.90
27423;DHT22;14878;50.778;0.258;2022-07-15T00:12:15;16.60;99.90
27423;DHT22;14878;50.778;0.258;2022-07-15T00:13:16;16.50;99.90
27423;DHT22;14878;50.778;0.258;2022-07-15T00:14:16;16.50;99.90
27423;DHT22;14878;50.778;0.258;2022-07-15T00:15:20;16.50;99.90
27423;DHT22;14878;50.778;0.258;2022-07-15T00:16:21;16.50;99.90
27423;DHT22;14878;50.778;0.258;2022-07-15T00:17:22;16.50;99.90
27423;DHT22;14878;50.778;0.258;2022-07-15T00:18:22;16.50;99.90
27423;DHT22;14878;50.778;0.258;2022-07-15T00:19:23;16.50;99.90
27423;DHT22;14878;50.778;0.258;2022-07-15T00:20:24;16.50;99.90
27423;DHT22;14878;50.778;0.258;2022-07-15T00:21:25;16.50;99.90
27423;DHT22;14878;50.778;0.258;2022-07-15T00:22:26;16.50;99.90
27423;DHT22;14878;50.778;0.258;2022-07-15T00:23:26;16.50;99.90
27423;DHT22;14878;50.778;0.258;2022-07-15T00:24:28;16.60;99.90
27423;DHT22;14878;50.778;0.258;2022-07-15T00:25:29;16.90;99.90
27423;DHT22;14878;50.778;0.258;2022-07-15T00:26:30;16.60;99.90
27423;DHT22;14878;50.778;0.258;2022-07-15T00:27:31;16.50;99.90
27423;DHT22;14878;50.778;0.258;2022-07-15T00:28:32;16.50;99.90
27423;DHT22;14878;50.778;0.258;2022-07-15T00:29:33;16.50;99.90
27423;DHT22;14878;50.778;0.258;2022-07-15T00:30:41;16.50;99.90
27423;DHT22;14878;50.778;0.258;2022-07-15T00:31:42;16.50;99.90
27423;DHT22;14878;50.778;0.258;2022-07-15T00:32:42;16.50;99.90
27423;DHT22;14878;50.778;0.258;2022-07-15T00:33:46;16.40;99.90
27423;DHT22;14878;50.778;0.258;2022-07-15T00:34:48;16.30;99.90
27423;DHT22;14878;50.778;0.258;2022-07-15T00:35:50;16.30;99.90
27423;DHT22;14878;50.778;0.258;2022-07-15T00:36:51;16.30;99.90
27423;DHT22;14878;50.778;0.258;2022-07-15T00:37:52;16.30;99.90
27423;DHT22;14878;50.778;0.258;2022-07-15T00:38:52;16.30;99.90
27423;DHT22;14878;50.778;0.258;2022-07-15T00:39:53;16.20;99.90
27423;DHT22;14878;50.778;0.258;2022-07-15T00:40:54;16.10;99.90
27423;DHT22;14878;50.778;0.258;2022-07-15T00:41:55;16.10;99.90
27423;DHT22;14878;50.778;0.258;2022-07-15T00:42:58;16.20;99.90
27423;DHT22;14878;50.778;0.258;2022-07-15T00:43:59;16.30;99.90
27423;DHT22;14878;50.778;0.258;2022-07-15T00:45:00;16.20;99.90
27423;DHT22;14878;50.778;0.258;2022-07-15T00:46:01;16.20;99.90
27423;DHT22;14878;50.778;0.258;2022-07-15T00:47:02;16.20;99.90
27423;DHT22;14878;50.778;0.258;2022-07-15T00:48:03;16.30;99.90
27423;DHT22;14878;50.778;0.258;2022-07-15T00:49:06;16.30;99.90
27423;DHT22;14878;50.778;0.258;2022-07-15T00:50:11;16.40;99.90
27423;DHT22;14878;50.778;0.258;2022-07-15T00:51:12;16.50;99.90
27423;DHT22;14878;50.778;0.258;2022-07-15T00:52:13;16.60;99.90
27423;DHT22;14878;50.778;0.258;2022-07-15T00:53:18;16.70;99.90
27423;DHT22;14878;50.778;0.258;2022-07-15T00:54:24;16.60;99.90
27423;DHT22;14878;50.778;0.258;2022-07-15T00:55:29;16.40;99.90
27423;DHT22;14878;50.778;0.258;2022-07-15T00:56:30;16.50;99.90
27423;DHT22;14878;50.778;0.258;2022-07-15T00:57:37;16.50;99.90
27423;DHT22;14878;50.778;0.258;2022-07-15T00:58:40;16.50;99.90
27423;DHT22;14878;50.778;0.258;2022-07-15T00:59:41;16.50;99.90
27423;DHT22;14878;50.778;0.258;2022-07-15T01:00:46;16.60;99.90
27423;DHT22;14878;50.778;0.258;2022-07-15T01:01:48;16.60;99.90
27423;DHT22;14878;50.778;0.258;2022-07-15T01:02:50;16.70;99.90
27423;DHT22;14878;50.778;0.258;2022-07-15T01:03:53;16.80;99.90
27423;DHT22;14878;50.778;0.258;2022-07-15T01:04:54;16.80;99.90
27423;DHT22;14878;50.778;0.258;2022-07-15T01:05:57;16.90;99.90
27423;DHT22;14878;50.778;0.258;2022-07-15T01:06:58;16.90;99.90
27423;DHT22;14878;50.778;0.258;2022-07-15T01:07:59;17.00;99.90
27423;DHT22;14878;50.778;0.258;2022-07-15T01:09:00;17.00;99.90
27423;DHT22;14878;50.778;0.258;2022-07-15T01:10:00;17.00;99.90
27423;DHT22;14878;50.778;0.258;2022-07-15T01:11:01;17.00;99.90
27423;DHT22;14878;50.778;0.258;2022-07-15T01:12:02;17.00;99.90
27423;DHT22;14878;50.778;0.258;2022-07-15T01:13:03;16.90;99.90
27423;DHT22;14878;50.778;0.258;2022-07-15T01:14:05;16.80;99.90
27423;DHT22;14878;50.778;0.258;2022-07-15T01:15:07;16.80;99.90
27423;DHT22;14878;50.778;0.258;2022-07-15T01:16:09;16.90;99.90
27423;DHT22;14878;50.778;0.258;2022-07-15T01:17:12;16.90;99.90
27423;DHT22;14878;50.778;0.258;2022-07-15T01:18:13;16.90;99.90
27423;DHT22;14878;50.778;0.258;2022-07-15T01:19:13;16.90;99.90
27423;DHT22;14878;50.778;0.258;2022-07-15T01:20:15;16.90;99.90
27423;DHT22;14878;50.778;0.258;2022-07-15T01:21:17;17.00;99.90
27423;DHT22;14878;50.778;0.258;2022-07-15T01:22:17;17.10;99.90
27423;DHT22;14878;50.778;0.258;2022-07-15T01:23:18;17.20;99.90
27423;DHT22;14878;50.778;0.258;2022-07-15T01:24:19;17.20;99.90
27423;DHT22;14878;50.778;0.258;2022-07-15T01:25:20;17.10;99.90
27423;DHT22;14878;50.778;0.258;2022-07-15T01:26:21;17.10;99.90
27423;DHT22;14878;50.778;0.258;2022-07-15T01:27:21;17.10;99.90
27423;DHT22;14878;50.778;0.258;2022-07-15T01:28:22;17.00;99.90
27423;DHT22;14878;50.778;0.258;2022-07-15T01:29:23;17.10;99.90
27423;DHT22;14878;50.778;0.258;2022-07-15T01:30:24;17.10;99.90
27423;DHT22;14878;50.778;0.258;2022-07-15T01:31:24;17.10;99.90
27423;DHT22;14878;50.778;0.258;2022-07-15T01:32:26;17.00;99.90
27423;DHT22;14878;50.778;0.258;2022-07-15T01:33:27;17.10;99.90
27423;DHT22;14878;50.778;0.258;2022-07-15T01:34:28;17.10;99.90
27423;DHT22;14878;50.778;0.258;2022-07-15T01:35:29;16.90;99.90
27423;DHT22;14878;50.778;0.258;2022-07-15T01:36:30;16.80;99.90
27423;DHT22;14878;50.778;0.258;2022-07-15T01:37:30;16.80;99.90
27423;DHT22;14878;50.778;0.258;2022-07-15T01:38:32;16.80;99.90
27423;DHT22;14878;50.778;0.258;2022-07-15T01:39:32;16.80;99.90
27423;DHT22;14878;50.778;0.258;2022-07-15T01:40:33;16.90;99.90
27423;DHT22;14878;50.778;0.258;2022-07-15T01:41:34;16.90;99.90
27423;DHT22;14878;50.778;0.258;2022-07-15T01:42:35;16.80;99.90
27423;DHT22;14878;50.778;0.258;2022-07-15T01:43:36;16.80;99.90
27423;DHT22;14878;50.778;0.258;2022-07-15T01:44:37;16.70;99.90
27423;DHT22;14878;50.778;0.258;2022-07-15T01:45:42;16.60;99.90
27423;DHT22;14878;50.778;0.258;2022-07-15T01:46:44;16.40;99.90
27423;DHT22;14878;50.778;0.258;2022-07-15T01:47:48;16.30;99.90
27423;DHT22;14878;50.778;0.258;2022-07-15T01:48:49;16.20;99.90
27423;DHT22;14878;50.778;0.258;2022-07-15T01:50:08;16.20;99.90
27423;DHT22;14878;50.778;0.258;2022-07-15T01:51:09;16.40;99.90
27423;DHT22;14878;50.778;0.258;2022-07-15T01:52:10;16.40;99.90
27423;DHT22;14878;50.778;0.258;2022-07-15T01:53:11;16.40;99.90
27423;DHT22;14878;50.778;0.258;2022-07-15T01:54:11;16.40;99.90
27423;DHT22;14878;50.778;0.258;2022-07-15T01:55:12;16.50;99.90
27423;DHT22;14878;50.778;0.258;2022-07-15T01:56:13;16.50;99.90
27423;DHT22;14878;50.778;0.258;2022-07-15T01:57:13;16.50;99.90
27423;DHT22;14878;50.778;0.258;2022-07-15T01:58:14;16.50;99.90
27423;DHT22;14878;50.778;0.258;2022-07-15T01:59:15;16.40;99.90
27423;DHT22;14878;50.778;0.258;2022-07-15T02:00:16;16.30;99.90
27423;DHT22;14878;50.778;0.258;2022-07-15T02:01:17;16.10;99.90
27423;DHT22;14878;50.778;0.258;2022-07-15T02:02:18;16.20;99.90
27423;DHT22;14878;50.778;0.258;2022-07-15T02:03:19;16.10;99.90
27423;DHT22;14878;50.778;0.258;2022-07-15T02:04:20;16.00;99.90
27423;DHT22;14878;50.778;0.258;2022-07-15T02:05:21;15.90;99.90
27423;DHT22;14878;50.778;0.258;2022-07-15T02:06:22;15.90;99.90
27423;DHT22;14878;50.778;0.258;2022-07-15T02:07:23;15.80;99.90
27423;DHT22;14878;50.778;0.258;2022-07-15T02:08:24;15.70;99.90
27423;DHT22;14878;50.778;0.258;2022-07-15T02:09:25;15.70;99.90
27423;DHT22;14878;50.778;0.258;2022-07-15T02:10:25;15.60;99.90
27423;DHT22;14878;50.778;0.258;2022-07-15T02:11:40;15.60;99.90
27423;DHT22;14878;50.778;0.258;2022-07-15T02:12:40;15.50;99.90
27423;DHT22;14878;50.778;0.258;2022-07-15T02:13:41;15.40;99.90
27423;DHT22;14878;50.778;0.258;2022-07-15T02:14:42;15.40;99.90
27423;DHT22;14878;50.778;0.258;2022-07-15T02:15:43;15.40;99.90
27423;DHT22;14878;50.778;0.258;2022-07-15T02:16:44;15.40;99.90
27423;DHT22;14878;50.778;0.258;2022-07-15T02:17:45;15.50;99.90
27423;DHT22;14878;50.778;0.258;2022-07-15T02:18:45;15.50;99.90
27423;DHT22;14878;50.778;0.258;2022-07-15T02:19:46;15.60;99.90
27423;DHT22;14878;50.778;0.258;2022-07-15T02:20:47;15.60;99.90
27423;DHT22;14878;50.778;0.258;2022-07-15T02:21:48;15.60;99.90
27423;DHT22;14878;50.778;0.258;2022-07-15T02:22:48;15.60;99.90
27423;DHT22;14878;50.778;0.258;2022-07-15T02:23:49;15.60;99.90
27423;DHT22;14878;50.778;0.258;2022-07-15T02:24:50;15.50;99.90
27423;DHT22;14878;50.778;0.258;2022-07-15T02:25:51;15.60;99.90
27423;DHT22;14878;50.778;0.258;2022-07-15T02:26:52;15.60;99.90
27423;DHT22;14878;50.778;0.258;2022-07-15T02:27:54;15.60;99.90
27423;DHT22;14878;50.778;0.258;2022-07-15T02:28:56;15.60;99.90
27423;DHT22;14878;50.778;0.258;2022-07-15T02:29:57;15.50;99.90
27423;DHT22;14878;50.778;0.258;2022-07-15T02:30:58;15.50;99.90
27423;DHT22;14878;50.778;0.258;2022-07-15T02:31:59;15.40;99.90
27423;DHT22;14878;50.778;0.258;2022-07-15T02:33:00;15.40;99.90
27423;DHT22;14878;50.778;0.258;2022-07-15T02:34:01;15.40;99.90
27423;DHT22;14878;50.778;0.258;2022-07-15T02:35:04;15.50;99.90
27423;DHT22;14878;50.778;0.258;2022-07-15T02:36:05;15.50;99.90
27423;DHT22;14878;50.778;0.258;2022-07-15T02:37:06;15.50;99.90
27423;DHT22;14878;50.778;0.258;2022-07-15T02:38:06;15.50;99.90
27423;DHT22;14878;50.778;0.258;2022-07-15T02:39:07;15.50;99.90
27423;DHT22;14878;50.778;0.258;2022-07-15T02:40:09;15.40;99.90
27423;DHT22;14878;50.778;0.258;2022-07-15T02:41:10;15.40;99.90
27423;DHT22;14878;50.778;0.258;2022-07-15T02:42:12;15.40;99.90
27423;DHT22;14878;50.778;0.258;2022-07-15T02:43:13;15.40;99.90
27423;DHT22;14878;50.778;0.258;2022-07-15T02:44:13;15.40;99.90
27423;DHT22;14878;50.778;0.258;2022-07-15T02:45:15;15.40;99.90
27423;DHT22;14878;50.778;0.258;2022-07-15T02:46:16;15.40;99.90
27423;DHT22;14878;50.778;0.258;2022-07-15T02:47:17;15.50;99.90
27423;DHT22;14878;50.778;0.258;2022-07-15T02:48:17;15.40;99.90
27423;DHT22;14878;50.778;0.258;2022-07-15T02:49:18;15.40;99.90
27423;DHT22;14878;50.778;0.258;2022-07-15T02:50:20;15.40;99.90
27423;DHT22;14878;50.778;0.258;2022-07-15T02:51:21;15.40;99.90
27423;DHT22;14878;50.778;0.258;2022-07-15T02:52:21;15.30;99.90
27423;DHT22;14878;50.778;0.258;2022-07-15T02:53:22;15.30;99.90
27423;DHT22;14878;50.778;0.258;2022-07-15T02:54:29;15.20;99.90
27423;DHT22;14878;50.778;0.258;2022-07-15T02:55:30;15.20;99.90
27423;DHT22;14878;50.778;0.258;2022-07-15T02:56:30;15.20;99.90
27423;DHT22;14878;50.778;0.258;2022-07-15T02:57:31;15.30;99.90
27423;DHT22;14878;50.778;0.258;2022-07-15T02:58:32;15.20;99.90
27423;DHT22;14878;50.778;0.258;2022-07-15T02:59:33;15.20;99.90
27423;DHT22;14878;50.778;0.258;2022-07-15T03:00:34;15.20;99.90
27423;DHT22;14878;50.778;0.258;2022-07-15T03:01:34;15.20;99.90
27423;DHT22;14878;50.778;0.258;2022-07-15T03:02:35;15.30;99.90
27423;DHT22;14878;50.778;0.258;2022-07-15T03:03:36;15.40;99.90
27423;DHT22;14878;50.778;0.258;2022-07-15T03:04:37;15.40;99.90
27423;DHT22;14878;50.778;0.258;2022-07-15T03:05:38;15.40;99.90
27423;DHT22;14878;50.778;0.258;2022-07-15T03:06:39;15.50;99.90
27423;DHT22;14878;50.778;0.258;2022-07-15T03:07:40;15.50;99.90
27423;DHT22;14878;50.778;0.258;2022-07-15T03:08:41;15.50;99.90
27423;DHT22;14878;50.778;0.258;2022-07-15T03:09:42;15.50;99.90
27423;DHT22;14878;50.778;0.258;2022-07-15T03:10:43;15.60;99.90
27423;DHT22;14878;50.778;0.258;2022-07-15T03:11:44;15.70;99.90
27423;DHT22;14878;50.778;0.258;2022-07-15T03:12:45;15.70;99.90
27423;DHT22;14878;50.778;0.258;2022-07-15T03:13:46;15.70;99.90
27423;DHT22;14878;50.778;0.258;2022-07-15T03:14:46;15.70;99.90
27423;DHT22;14878;50.778;0.258;2022-07-15T03:15:47;15.70;99.90
27423;DHT22;14878;50.778;0.258;2022-07-15T03:16:48;15.70;99.90
27423;DHT22;14878;50.778;0.258;2022-07-15T03:17:49;15.70;99.90
27423;DHT22;14878;50.778;0.258;2022-07-15T03:18:50;15.70;99.90
27423;DHT22;14878;50.778;0.258;2022-07-15T03:19:50;15.70;99.90
27423;DHT22;14878;50.778;0.258;2022-07-15T03:20:51;15.70;99.90
27423;DHT22;14878;50.778;0.258;2022-07-15T03:21:52;15.60;99.90
27423;DHT22;14878;50.778;0.258;2022-07-15T03:22:54;15.50;99.90
27423;DHT22;14878;50.778;0.258;2022-07-15T03:23:55;15.50;99.90
27423;DHT22;14878;50.778;0.258;2022-07-15T03:24:55;15.50;99.90
27423;DHT22;14878;50.778;0.258;2022-07-15T03:25:56;15.50;99.90
27423;DHT22;14878;50.778;0.258;2022-07-15T03:26:57;15.50;99.90
27423;DHT22;14878;50.778;0.258;2022-07-15T03:27:57;15.50;99.90
27423;DHT22;14878;50.778;0.258;2022-07-15T03:28:58;15.40;99.90
27423;DHT22;14878;50.778;0.258;2022-07-15T03:30:01;15.40;99.90
27423;DHT22;14878;50.778;0.258;2022-07-15T03:31:02;15.30;99.90
27423;DHT22;14878;50.778;0.258;2022-07-15T03:32:03;15.30;99.90
27423;DHT22;14878;50.778;0.258;2022-07-15T03:33:04;15.20;99.90
27423;DHT22;14878;50.778;0.258;2022-07-15T03:34:05;15.20;99.90
27423;DHT22;14878;50.778;0.258;2022-07-15T03:35:06;15.20;99.90
27423;DHT22;14878;50.778;0.258;2022-07-15T03:36:07;15.20;99.90
27423;DHT22;14878;50.778;0.258;2022-07-15T03:37:08;15.20;99.90
27423;DHT22;14878;50.778;0.258;2022-07-15T03:38:09;15.10;99.90
27423;DHT22;14878;50.778;0.258;2022-07-15T03:39:10;15.10;99.90
27423;DHT22;14878;50.778;0.258;2022-07-15T03:40:12;15.00;99.90
27423;DHT22;14878;50.778;0.258;2022-07-15T03:41:12;15.10;99.90
27423;DHT22;14878;50.778;0.258;2022-07-15T03:42:13;15.10;99.90
27423;DHT22;14878;50.778;0.258;2022-07-15T03:43:14;15.10;99.90
27423;DHT22;14878;50.778;0.258;2022-07-15T03:44:15;15.20;99.90
27423;DHT22;14878;50.778;0.258;2022-07-15T03:45:16;15.20;99.90
27423;DHT22;14878;50.778;0.258;2022-07-15T03:46:17;15.20;99.90
27423;DHT22;14878;50.778;0.258;2022-07-15T03:47:18;15.10;99.90
27423;DHT22;14878;50.778;0.258;2022-07-15T03:48:19;15.10;99.90
27423;DHT22;14878;50.778;0.258;2022-07-15T03:49:19;14.80;99.90
27423;DHT22;14878;50.778;0.258;2022-07-15T03:50:20;15.10;99.90
27423;DHT22;14878;50.778;0.258;2022-07-15T03:51:21;15.10;99.90
27423;DHT22;14878;50.778;0.258;2022-07-15T03:52:25;15.10;99.90
27423;DHT22;14878;50.778;0.258;2022-07-15T03:53:25;15.20;99.90
27423;DHT22;14878;50.778;0.258;2022-07-15T03:54:26;15.20;99.90
27423;DHT22;14878;50.778;0.258;2022-07-15T03:55:27;15.20;99.90
27423;DHT22;14878;50.778;0.258;2022-07-15T03:56:29;15.30;99.90
27423;DHT22;14878;50.778;0.258;2022-07-15T03:57:30;15.30;99.90
27423;DHT22;14878;50.778;0.258;2022-07-15T03:58:30;15.30;99.90
27423;DHT22;14878;50.778;0.258;2022-07-15T03:59:32;15.30;99.90
27423;DHT22;14878;50.778;0.258;2022-07-15T04:00:33;15.40;99.90
27423;DHT22;14878;50.778;0.258;2022-07-15T04:01:34;15.40;99.90
27423;DHT22;14878;50.778;0.258;2022-07-15T04:02:35;15.30;99.90
27423;DHT22;14878;50.778;0.258;2022-07-15T04:03:36;15.30;99.90
27423;DHT22;14878;50.778;0.258;2022-07-15T04:04:36;15.30;99.90
27423;DHT22;14878;50.778;0.258;2022-07-15T04:05:37;15.30;99.90
27423;DHT22;14878;50.778;0.258;2022-07-15T04:06:39;15.30;99.90
27423;DHT22;14878;50.778;0.258;2022-07-15T04:07:39;15.20;99.90
27423;DHT22;14878;50.778;0.258;2022-07-15T04:08:41;15.20;99.90
27423;DHT22;14878;50.778;0.258;2022-07-15T04:09:42;15.10;99.90
27423;DHT22;14878;50.778;0.258;2022-07-15T04:10:43;15.10;99.90
27423;DHT22;14878;50.778;0.258;2022-07-15T04:11:43;15.00;99.90
27423;DHT22;14878;50.778;0.258;2022-07-15T04:12:44;15.00;99.90
27423;DHT22;14878;50.778;0.258;2022-07-15T04:13:45;15.00;99.90
27423;DHT22;14878;50.778;0.258;2022-07-15T04:14:47;14.90;99.90
27423;DHT22;14878;50.778;0.258;2022-07-15T04:15:48;14.90;99.90
27423;DHT22;14878;50.778;0.258;2022-07-15T04:16:49;14.90;99.90
27423;DHT22;14878;50.778;0.258;2022-07-15T04:17:49;14.90;99.90
27423;DHT22;14878;50.778;0.258;2022-07-15T04:18:50;14.90;99.90
27423;DHT22;14878;50.778;0.258;2022-07-15T04:19:52;14.60;99.90
27423;DHT22;14878;50.778;0.258;2022-07-15T04:20:52;14.90;99.90
27423;DHT22;14878;50.778;0.258;2022-07-15T04:21:53;15.00;99.90
27423;DHT22;14878;50.778;0.258;2022-07-15T04:22:54;14.90;99.90
27423;DHT22;14878;50.778;0.258;2022-07-15T04:23:55;14.90;99.90
27423;DHT22;14878;50.778;0.258;2022-07-15T04:24:55;14.90;99.90
27423;DHT22;14878;50.778;0.258;2022-07-15T04:25:56;14.80;99.90
27423;DHT22;14878;50.778;0.258;2022-07-15T04:26:57;14.80;99.90
27423;DHT22;14878;50.778;0.258;2022-07-15T04:27:58;14.70;99.90
27423;DHT22;14878;50.778;0.258;2022-07-15T04:28:58;14.70;99.90
27423;DHT22;14878;50.778;0.258;2022-07-15T04:29:59;14.70;99.90
27423;DHT22;14878;50.778;0.258;2022-07-15T04:31:00;14.60;99.90
27423;DHT22;14878;50.778;0.258;2022-07-15T04:32:01;14.60;99.90
27423;DHT22;14878;50.778;0.258;2022-07-15T04:33:02;14.60;99.90
27423;DHT22;14878;50.778;0.258;2022-07-15T04:34:03;14.60;99.90
27423;DHT22;14878;50.778;0.258;2022-07-15T04:35:04;14.60;99.90
27423;DHT22;14878;50.778;0.258;2022-07-15T04:36:05;14.70;99.90
27423;DHT22;14878;50.778;0.258;2022-07-15T04:37:06;14.70;99.90
27423;DHT22;14878;50.778;0.258;2022-07-15T04:38:07;14.70;99.90
27423;DHT22;14878;50.778;0.258;2022-07-15T04:39:08;14.80;99.90
27423;DHT22;14878;50.778;0.258;2022-07-15T04:40:12;14.80;99.90
27423;DHT22;14878;50.778;0.258;2022-07-15T04:41:12;14.90;99.90
27423;DHT22;14878;50.778;0.258;2022-07-15T04:42:13;15.00;99.90
27423;DHT22;14878;50.778;0.258;2022-07-15T04:43:14;15.10;99.90
27423;DHT22;14878;50.778;0.258;2022-07-15T04:44:15;15.20;99.90
27423;DHT22;14878;50.778;0.258;2022-07-15T04:45:16;15.20;99.90
27423;DHT22;14878;50.778;0.258;2022-07-15T04:46:17;15.30;99.90
27423;DHT22;14878;50.778;0.258;2022-07-15T04:47:17;15.20;99.90
27423;DHT22;14878;50.778;0.258;2022-07-15T04:48:18;15.20;99.90
27423;DHT22;14878;50.778;0.258;2022-07-15T04:49:38;15.10;99.90
27423;DHT22;14878;50.778;0.258;2022-07-15T04:50:57;15.20;99.90
27423;DHT22;14878;50.778;0.258;2022-07-15T04:51:58;15.20;99.90
27423;DHT22;14878;50.778;0.258;2022-07-15T04:52:59;15.30;99.90
27423;DHT22;14878;50.778;0.258;2022-07-15T04:53:59;15.40;99.90
27423;DHT22;14878;50.778;0.258;2022-07-15T04:55:01;15.50;99.90
27423;DHT22;14878;50.778;0.258;2022-07-15T04:56:02;15.50;99.90
27423;DHT22;14878;50.778;0.258;2022-07-15T04:57:03;15.50;99.90
27423;DHT22;14878;50.778;0.258;2022-07-15T04:58:04;15.50;99.90
27423;DHT22;14878;50.778;0.258;2022-07-15T04:59:05;15.40;99.90
27423;DHT22;14878;50.778;0.258;2022-07-15T05:00:07;15.30;99.90
27423;DHT22;14878;50.778;0.258;2022-07-15T05:01:08;15.30;99.90
27423;DHT22;14878;50.778;0.258;2022-07-15T05:02:10;15.50;99.90
27423;DHT22;14878;50.778;0.258;2022-07-15T05:03:10;15.50;99.90
27423;DHT22;14878;50.778;0.258;2022-07-15T05:04:11;14.00;99.90
27423;DHT22;14878;50.778;0.258;2022-07-15T05:05:12;15.50;99.90
27423;DHT22;14878;50.778;0.258;2022-07-15T05:06:13;15.60;99.90
27423;DHT22;14878;50.778;0.258;2022-07-15T05:07:13;15.70;99.90
27423;DHT22;14878;50.778;0.258;2022-07-15T05:08:15;15.70;99.90
27423;DHT22;14878;50.778;0.258;2022-07-15T05:09:16;15.70;99.90
27423;DHT22;14878;50.778;0.258;2022-07-15T05:10:17;15.70;99.90
27423;DHT22;14878;50.778;0.258;2022-07-15T05:11:17;15.80;99.90
27423;DHT22;14878;50.778;0.258;2022-07-15T05:12:21;15.90;99.90
27423;DHT22;14878;50.778;0.258;2022-07-15T05:13:22;16.00;99.90
27423;DHT22;14878;50.778;0.258;2022-07-15T05:14:26;16.10;99.90
27423;DHT22;14878;50.778;0.258;2022-07-15T05:15:26;16.20;99.90
27423;DHT22;14878;50.778;0.258;2022-07-15T05:16:27;16.20;99.90
27423;DHT22;14878;50.778;0.258;2022-07-15T05:17:28;16.30;99.90
27423;DHT22;14878;50.778;0.258;2022-07-15T05:18:29;16.40;99.90
27423;DHT22;14878;50.778;0.258;2022-07-15T05:19:30;16.50;99.90
27423;DHT22;14878;50.778;0.258;2022-07-15T05:20:31;16.70;99.90
27423;DHT22;14878;50.778;0.258;2022-07-15T05:21:32;16.70;99.90
27423;DHT22;14878;50.778;0.258;2022-07-15T05:22:32;16.70;99.90
27423;DHT22;14878;50.778;0.258;2022-07-15T05:23:33;16.70;99.90
27423;DHT22;14878;50.778;0.258;2022-07-15T05:24:34;16.70;99.90
27423;DHT22;14878;50.778;0.258;2022-07-15T05:25:35;16.70;99.90
27423;DHT22;14878;50.778;0.258;2022-07-15T05:26:36;16.80;99.90
27423;DHT22;14878;50.778;0.258;2022-07-15T05:27:36;16.80;99.90
27423;DHT22;14878;50.778;0.258;2022-07-15T05:28:37;16.90;99.90
27423;DHT22;14878;50.778;0.258;2022-07-15T05:29:39;16.90;99.90
27423;DHT22;14878;50.778;0.258;2022-07-15T05:30:40;16.90;99.90
27423;DHT22;14878;50.778;0.258;2022-07-15T05:31:41;17.00;99.90
27423;DHT22;14878;50.778;0.258;2022-07-15T05:32:42;17.10;99.90
27423;DHT22;14878;50.778;0.258;2022-07-15T05:33:43;17.10;99.90
27423;DHT22;14878;50.778;0.258;2022-07-15T05:34:44;17.20;99.90
27423;DHT22;14878;50.778;0.258;2022-07-15T05:35:45;17.30;99.90
27423;DHT22;14878;50.778;0.258;2022-07-15T05:36:45;17.40;99.90
27423;DHT22;14878;50.778;0.258;2022-07-15T05:37:46;17.60;99.90
27423;DHT22;14878;50.778;0.258;2022-07-15T05:38:47;17.80;99.90
27423;DHT22;14878;50.778;0.258;2022-07-15T05:39:48;18.10;99.90
27423;DHT22;14878;50.778;0.258;2022-07-15T05:40:55;18.30;99.90
27423;DHT22;14878;50.778;0.258;2022-07-15T05:41:55;18.40;99.90
27423;DHT22;14878;50.778;0.258;2022-07-15T05:42:57;18.80;99.90
27423;DHT22;14878;50.778;0.258;2022-07-15T05:43:59;18.90;99.90
27423;DHT22;14878;50.778;0.258;2022-07-15T05:45:00;18.80;99.90
27423;DHT22;14878;50.778;0.258;2022-07-15T05:46:02;18.90;99.90
27423;DHT22;14878;50.778;0.258;2022-07-15T05:47:03;18.90;99.90
27423;DHT22;14878;50.778;0.258;2022-07-15T05:48:04;19.00;99.90
27423;DHT22;14878;50.778;0.258;2022-07-15T05:49:05;19.10;99.90
27423;DHT22;14878;50.778;0.258;2022-07-15T05:50:05;19.50;99.90
27423;DHT22;14878;50.778;0.258;2022-07-15T05:51:07;19.70;99.90
27423;DHT22;14878;50.778;0.258;2022-07-15T05:52:08;19.70;99.90
27423;DHT22;14878;50.778;0.258;2022-07-15T05:53:09;19.80;99.90
27423;DHT22;14878;50.778;0.258;2022-07-15T05:54:10;19.90;99.90
27423;DHT22;14878;50.778;0.258;2022-07-15T05:55:14;20.00;99.90
27423;DHT22;14878;50.778;0.258;2022-07-15T05:56:14;19.90;99.90
27423;DHT22;14878;50.778;0.258;2022-07-15T05:57:15;20.30;99.90
27423;DHT22;14878;50.778;0.258;2022-07-15T05:58:16;20.60;99.90
27423;DHT22;14878;50.778;0.258;2022-07-15T05:59:17;21.20;99.90
27423;DHT22;14878;50.778;0.258;2022-07-15T06:00:18;21.90;99.90
27423;DHT22;14878;50.778;0.258;2022-07-15T06:01:19;22.50;99.90
27423;DHT22;14878;50.778;0.258;2022-07-15T06:02:21;23.00;99.90
27423;DHT22;14878;50.778;0.258;2022-07-15T06:03:22;23.50;99.90
27423;DHT22;14878;50.778;0.258;2022-07-15T06:04:23;23.90;99.90
27423;DHT22;14878;50.778;0.258;2022-07-15T06:05:27;24.10;99.90
27423;DHT22;14878;50.778;0.258;2022-07-15T06:06:30;24.30;99.90
27423;DHT22;14878;50.778;0.258;2022-07-15T06:07:31;24.50;99.90
27423;DHT22;14878;50.778;0.258;2022-07-15T06:08:33;24.60;99.90
27423;DHT22;14878;50.778;0.258;2022-07-15T06:09:33;24.70;99.90
27423;DHT22;14878;50.778;0.258;2022-07-15T06:10:34;24.70;99.90
27423;DHT22;14878;50.778;0.258;2022-07-15T06:11:35;24.70;99.90
27423;DHT22;14878;50.778;0.258;2022-07-15T06:12:36;24.60;99.90
27423;DHT22;14878;50.778;0.258;2022-07-15T06:13:37;24.50;99.90
27423;DHT22;14878;50.778;0.258;2022-07-15T06:14:38;24.50;99.90
27423;DHT22;14878;50.778;0.258;2022-07-15T06:15:39;24.50;99.90
27423;DHT22;14878;50.778;0.258;2022-07-15T06:16:40;24.60;99.90
27423;DHT22;14878;50.778;0.258;2022-07-15T06:17:41;24.70;99.90
27423;DHT22;14878;50.778;0.258;2022-07-15T06:18:42;24.70;99.90
27423;DHT22;14878;50.778;0.258;2022-07-15T06:19:46;24.70;99.90
27423;DHT22;14878;50.778;0.258;2022-07-15T06:20:46;24.90;99.90
27423;DHT22;14878;50.778;0.258;2022-07-15T06:21:47;24.80;99.90
27423;DHT22;14878;50.778;0.258;2022-07-15T06:22:48;24.70;99.90
27423;DHT22;14878;50.778;0.258;2022-07-15T06:23:49;24.60;99.90
27423;DHT22;14878;50.778;0.258;2022-07-15T06:24:49;24.50;99.90
27423;DHT22;14878;50.778;0.258;2022-07-15T06:25:50;24.30;99.90
27423;DHT22;14878;50.778;0.258;2022-07-15T06:26:51;24.00;99.90
27423;DHT22;14878;50.778;0.258;2022-07-15T06:27:52;23.90;99.90